Time;durP1;ratioP1;P1;durP2;ratioP2;P2;SDS_P1;SDS_P2;PMS_P1;PMS_P2;Temp;Humidity;BMP_temperature;BMP_pressure;BME280_temperature;BME280_humidity;BME280_pressure;Samples;Min_cycle;Max_cycle;Signal;HPM_P1;HPM_P2
2021/08/24 00:03:44;;;;;;;5.03;2.75;;;19.00;91.00;;;;;;10124762;28;20870;-60
2021/08/24 00:08:35;;;;;;;2.67;2.30;;;19.00;91.10;;;;;;10132257;28;20025;-59
2021/08/24 00:13:27;;;;;;;3.33;2.38;;;19.00;91.10;;;;;;10136966;28;20109;-58
2021/08/24 00:18:19;;;;;;;3.75;2.47;;;18.90;91.00;;;;;;10137230;28;20220;-59
2021/08/24 00:23:13;;;;;;;3.20;2.33;;;18.80;91.00;;;;;;10140893;28;20040;-60
2021/08/24 00:28:04;;;;;;;3.97;2.90;;;18.70;91.00;;;;;;10134123;28;20078;-58
2021/08/24 00:32:55;;;;;;;4.03;2.38;;;18.70;91.00;;;;;;10136779;28;20041;-58
2021/08/24 00:37:46;;;;;;;3.70;2.67;;;18.70;90.80;;;;;;10134654;28;20021;-61
2021/08/24 00:42:41;;;;;;;4.82;3.50;;;18.60;90.90;;;;;;10134313;28;20032;-59
2021/08/24 00:47:34;;;;;;;2.97;2.72;;;18.60;90.90;;;;;;10135549;28;20073;-58
2021/08/24 00:52:25;;;;;;;2.83;2.40;;;18.50;90.90;;;;;;10135860;28;20059;-59
2021/08/24 00:57:22;;;;;;;3.72;2.50;;;18.40;90.80;;;;;;10134882;28;20537;-58
2021/08/24 01:02:17;;;;;;;3.70;2.60;;;18.40;91.00;;;;;;10132062;28;20037;-59
2021/08/24 01:07:17;;;;;;;3.55;2.35;;;18.40;90.90;;;;;;10137430;28;20096;-60
2021/08/24 01:12:29;;;;;;;4.13;2.95;;;18.30;91.00;;;;;;10137083;28;20032;-59
2021/08/24 01:17:26;;;;;;;5.28;3.47;;;18.30;91.10;;;;;;10132658;28;20079;-59
2021/08/24 01:22:38;;;;;;;2.85;2.35;;;18.30;91.00;;;;;;10131147;28;20107;-58
2021/08/24 01:27:43;;;;;;;4.28;2.75;;;18.20;91.10;;;;;;10126309;28;20502;-59
2021/08/24 01:32:54;;;;;;;6.68;3.13;;;18.20;91.20;;;;;;10127680;28;20097;-58
2021/08/24 01:38:06;;;;;;;9.18;3.38;;;18.10;91.30;;;;;;10134126;28;20107;-59
2021/08/24 01:42:58;;;;;;;4.18;3.17;;;18.00;91.30;;;;;;10125524;28;20052;-59
2021/08/24 01:48:01;;;;;;;6.72;3.25;;;18.10;91.20;;;;;;10130301;28;20101;-59
2021/08/24 01:53:14;;;;;;;5.97;2.65;;;18.00;91.20;;;;;;10127051;28;20040;-59
2021/08/24 01:58:29;;;;;;;4.68;2.28;;;18.00;91.40;;;;;;10136712;28;20021;-58
2021/08/24 02:03:30;;;;;;;6.60;2.88;;;17.90;91.50;;;;;;10127106;28;20486;-58
2021/08/24 02:08:24;;;;;;;4.90;2.75;;;17.90;91.40;;;;;;10132294;28;20094;-58
2021/08/24 02:13:17;;;;;;;6.32;2.88;;;17.90;91.30;;;;;;10133370;28;20095;-59
2021/08/24 02:18:14;;;;;;;4.50;2.40;;;17.90;91.30;;;;;;10130641;28;20082;-58
2021/08/24 02:23:10;;;;;;;2.95;2.60;;;17.80;91.30;;;;;;10131114;28;20033;-59
2021/08/24 02:28:07;;;;;;;4.40;2.38;;;17.80;91.30;;;;;;10132041;28;20040;-59
2021/08/24 02:32:59;;;;;;;5.80;3.08;;;17.80;91.50;;;;;;10126299;28;20542;-59
2021/08/24 02:38:28;;;;;;;3.42;2.60;;;17.80;91.40;;;;;;10132603;28;20692;-59
2021/08/24 02:43:34;;;;;;;3.92;2.92;;;17.70;91.40;;;;;;10055135;28;20045;-59
2021/08/24 02:48:26;;;;;;;4.75;2.85;;;17.70;91.30;;;;;;10134592;28;20024;-58
2021/08/24 02:53:21;;;;;;;3.47;2.58;;;17.70;91.30;;;;;;10131984;28;20016;-59
2021/08/24 02:58:11;;;;;;;3.60;2.70;;;17.60;91.30;;;;;;10126934;28;20119;-59
2021/08/24 03:03:02;;;;;;;4.18;2.50;;;17.60;91.10;;;;;;10126660;28;20252;-61
2021/08/24 03:07:53;;;;;;;3.33;2.80;;;17.50;91.40;;;;;;10129812;28;20032;-58
2021/08/24 03:13:06;;;;;;;5.15;2.28;;;17.60;91.20;;;;;;10134834;28;20024;-59
2021/08/24 03:18:02;;;;;;;3.95;2.42;;;17.50;91.30;;;;;;10132161;28;20128;-59
2021/08/24 03:22:54;;;;;;;3.55;2.60;;;17.50;91.30;;;;;;10132092;28;20033;-59
2021/08/24 03:27:47;;;;;;;3.45;2.50;;;17.40;91.20;;;;;;10129395;28;20706;-58
2021/08/24 03:32:37;;;;;;;2.58;2.10;;;17.30;91.30;;;;;;10123829;28;20041;-59
2021/08/24 03:37:28;;;;;;;3.65;2.17;;;17.30;91.40;;;;;;10131869;28;20041;-59
2021/08/24 03:42:19;;;;;;;4.60;2.50;;;17.30;91.50;;;;;;10129824;28;20039;-61
2021/08/24 03:47:10;;;;;;;3.60;2.55;;;17.30;91.40;;;;;;10132886;28;20055;-59
2021/08/24 03:52:01;;;;;;;3.30;2.42;;;17.20;91.30;;;;;;10130569;28;20028;-59
2021/08/24 03:56:51;;;;;;;6.60;2.85;;;17.20;91.30;;;;;;10128884;28;20086;-59
2021/08/24 04:01:42;;;;;;;3.83;2.58;;;17.20;91.30;;;;;;10129910;28;20051;-59
2021/08/24 04:06:33;;;;;;;3.22;2.20;;;17.10;91.20;;;;;;10131267;28;20036;-57
2021/08/24 04:11:23;;;;;;;3.17;2.67;;;17.10;91.40;;;;;;10130124;28;20028;-58
2021/08/24 04:16:14;;;;;;;7.03;2.65;;;17.10;91.40;;;;;;10123412;28;20036;-59
2021/08/24 04:21:10;;;;;;;4.38;2.38;;;17.10;91.30;;;;;;10124457;28;20066;-58
2021/08/24 04:26:00;;;;;;;;;;;17.10;91.20;;;;;;10128945;28;20048;-59
2021/08/24 04:30:51;;;;;;;5.72;2.47;;;17.00;91.40;;;;;;10124344;28;20022;-59
2021/08/24 04:35:42;;;;;;;2.78;2.40;;;16.90;91.40;;;;;;10128503;28;20058;-58
2021/08/24 04:40:32;;;;;;;4.30;3.20;;;16.90;91.50;;;;;;10131268;28;20059;-58
2021/08/24 04:45:23;;;;;;;4.15;2.58;;;16.90;91.40;;;;;;10126226;28;20049;-59
2021/08/24 04:50:14;;;;;;;4.18;2.88;;;16.90;91.40;;;;;;10127188;28;20493;-59
2021/08/24 04:55:05;;;;;;;4.18;2.50;;;16.80;91.40;;;;;;10130687;28;20020;-58
2021/08/24 04:59:56;;;;;;;3.67;2.63;;;16.80;91.50;;;;;;10138087;28;20033;-58
2021/08/24 05:04:46;;;;;;;4.45;2.95;;;16.90;91.50;;;;;;10128747;28;20039;-59
2021/08/24 05:09:37;;;;;;;5.10;2.50;;;16.80;91.60;;;;;;10134733;28;20058;-58
2021/08/24 05:14:28;;;;;;;4.45;2.40;;;16.80;91.60;;;;;;10133151;28;20541;-59
2021/08/24 05:19:19;;;;;;;2.83;2.15;;;16.70;91.70;;;;;;10128500;28;20028;-60
2021/08/24 05:24:09;;;;;;;3.42;2.20;;;16.70;91.60;;;;;;10127603;28;20071;-59
2021/08/24 05:29:00;;;;;;;3.00;2.00;;;16.60;91.80;;;;;;10136113;28;20021;-60
2021/08/24 05:33:51;;;;;;;3.17;2.60;;;16.50;91.80;;;;;;10134518;28;20142;-58
2021/08/24 05:38:42;;;;;;;3.70;2.60;;;16.60;91.80;;;;;;10134447;28;20042;-60
2021/08/24 05:43:32;;;;;;;3.60;2.15;;;16.50;91.80;;;;;;10126558;28;20048;-59
2021/08/24 05:48:25;;;;;;;3.33;2.13;;;16.50;91.80;;;;;;10134432;28;20032;-58
2021/08/24 05:53:16;;;;;;;7.40;2.53;;;16.50;91.80;;;;;;10128637;28;20032;-58
2021/08/24 05:58:07;;;;;;;3.72;2.92;;;16.50;91.70;;;;;;10133739;28;20025;-59
2021/08/24 06:02:57;;;;;;;3.20;2.80;;;16.50;91.70;;;;;;10134009;28;20410;-58
2021/08/24 06:07:48;;;;;;;4.53;2.83;;;16.60;91.70;;;;;;10130060;28;20753;-58
2021/08/24 06:12:39;;;;;;;5.15;2.83;;;16.50;91.80;;;;;;10133078;28;20795;-58
2021/08/24 06:17:29;;;;;;;5.63;3.05;;;16.50;91.90;;;;;;10134373;28;20029;-62
2021/08/24 06:22:20;;;;;;;5.75;3.42;;;16.50;91.80;;;;;;10132976;28;20040;-59
2021/08/24 06:27:11;;;;;;;7.03;3.17;;;16.60;91.70;;;;;;10131052;28;20029;-60
2021/08/24 06:32:05;;;;;;;5.57;3.47;;;16.70;91.50;;;;;;10130243;28;20052;-59
2021/08/24 06:36:55;;;;;;;4.32;2.80;;;16.80;91.50;;;;;;10128657;28;20383;-58
2021/08/24 06:41:46;;;;;;;4.55;3.17;;;16.80;91.50;;;;;;10126887;28;20043;-58
2021/08/24 06:46:37;;;;;;;5.32;2.90;;;16.90;91.50;;;;;;10128237;28;20117;-57
2021/08/24 06:51:28;;;;;;;4.03;3.03;;;16.90;91.40;;;;;;10133516;28;20082;-59
2021/08/24 06:56:19;;;;;;;4.32;3.03;;;17.00;91.30;;;;;;10127663;28;20024;-59
2021/08/24 07:01:15;;;;;;;3.53;2.92;;;16.90;91.30;;;;;;10128797;28;20036;-60
2021/08/24 07:06:06;;;;;;;7.15;3.22;;;17.00;91.20;;;;;;10127406;28;20076;-59
2021/08/24 07:10:57;;;;;;;5.78;3.88;;;17.00;91.10;;;;;;10122526;28;20044;-59
2021/08/24 07:15:47;;;;;;;7.45;3.50;;;17.00;91.10;;;;;;10129581;28;20080;-58
2021/08/24 07:20:38;;;;;;;6.45;2.50;;;17.00;90.90;;;;;;10120087;28;20034;-57
2021/08/24 07:25:31;;;;;;;6.00;4.00;;;17.10;90.80;;;;;;10127027;28;20538;-57
2021/08/24 07:30:22;;;;;;;4.65;3.05;;;17.30;90.70;;;;;;10126513;28;20113;-58
2021/08/24 07:35:13;;;;;;;7.85;4.13;;;17.40;90.60;;;;;;10128819;28;20530;-58
2021/08/24 07:40:06;;;;;;;3.42;2.67;;;17.50;90.40;;;;;;10125078;28;20561;-59
2021/08/24 07:44:57;;;;;;;3.92;2.70;;;17.50;90.40;;;;;;10121619;28;20047;-59
2021/08/24 07:49:48;;;;;;;6.07;2.50;;;17.70;90.20;;;;;;10122223;28;20035;-58
2021/08/24 07:54:39;;;;;;;3.58;2.75;;;17.60;90.10;;;;;;10125596;28;20032;-58
2021/08/24 07:59:29;;;;;;;3.28;2.17;;;17.50;90.10;;;;;;10122181;28;20033;-57
2021/08/24 08:04:21;;;;;;;4.20;3.15;;;17.60;89.80;;;;;;10123739;28;20121;-59
2021/08/24 08:09:13;;;;;;;2.70;2.30;;;17.70;89.40;;;;;;10123049;28;20248;-58
2021/08/24 08:14:04;;;;;;;3.13;2.20;;;17.90;88.70;;;;;;10122538;28;20247;-57
2021/08/24 08:18:55;;;;;;;3.47;2.35;;;18.00;88.60;;;;;;10126316;28;20397;-57
2021/08/24 08:23:46;;;;;;;3.90;2.45;;;18.10;87.90;;;;;;10125814;28;20059;-58
2021/08/24 08:28:37;;;;;;;4.03;2.60;;;18.30;87.70;;;;;;10128698;28;20048;-59
2021/08/24 08:33:28;;;;;;;3.17;2.35;;;18.20;87.40;;;;;;10129331;28;20045;-58
2021/08/24 08:38:19;;;;;;;3.17;2.50;;;18.20;87.20;;;;;;10131770;28;20332;-59
2021/08/24 08:43:40;;;;;;;4.15;2.45;;;18.30;86.90;;;;;;10128969;28;20048;-60
2021/08/24 08:48:47;;;;;;;5.50;2.78;;;18.20;85.50;;;;;;10134457;28;20160;-57
2021/08/24 08:54:14;;;;;;;5.93;2.63;;;18.00;86.70;;;;;;10134517;28;20039;-58
2021/08/24 08:59:14;;;;;;;5.18;2.92;;;18.10;85.40;;;;;;10131940;28;20035;-57
2021/08/24 09:04:27;;;;;;;6.05;3.10;;;18.30;86.00;;;;;;10129914;28;20159;-60
2021/08/24 09:09:20;;;;;;;5.90;3.65;;;18.50;85.40;;;;;;10128018;28;20105;-57
2021/08/24 09:14:15;;;;;;;4.93;3.47;;;18.60;85.00;;;;;;10132386;28;20426;-58
2021/08/24 09:19:14;;;;;;;6.75;3.08;;;18.60;84.60;;;;;;10129099;28;20039;-58
2021/08/24 09:24:18;;;;;;;4.93;3.38;;;18.90;84.40;;;;;;10131858;28;20119;-58
2021/08/24 09:29:09;;;;;;;7.10;3.03;;;19.10;83.80;;;;;;10130725;28;20029;-58
2021/08/24 09:34:01;;;;;;;4.65;2.20;;;19.20;83.40;;;;;;10128898;28;20047;-61
2021/08/24 09:38:58;;;;;;;3.63;2.35;;;19.20;83.00;;;;;;10131307;28;20509;-59
2021/08/24 09:43:49;;;;;;;3.50;2.40;;;19.40;82.30;;;;;;10130220;28;20489;-58
2021/08/24 09:49:04;;;;;;;4.82;1.90;;;19.50;81.70;;;;;;10128437;28;20024;-59
2021/08/24 09:53:59;;;;;;;4.78;2.40;;;19.60;81.40;;;;;;10129433;28;20037;-58
2021/08/24 09:58:50;;;;;;;5.95;1.98;;;19.90;80.80;;;;;;10130483;28;20044;-58
2021/08/24 10:03:43;;;;;;;2.95;1.90;;;19.90;80.20;;;;;;10128974;28;20109;-58
2021/08/24 10:08:36;;;;;;;2.78;2.00;;;20.10;79.50;;;;;;10129378;28;20027;-56
2021/08/24 10:13:36;;;;;;;2.72;1.73;;;19.90;78.60;;;;;;10127593;28;20078;-58
2021/08/24 10:18:30;;;;;;;2.55;1.80;;;19.90;78.20;;;;;;10127379;28;20025;-59
2021/08/24 10:23:27;;;;;;;2.70;1.77;;;20.10;78.20;;;;;;10129649;28;20044;-59
2021/08/24 10:28:27;;;;;;;5.38;1.73;;;20.20;77.90;;;;;;10127468;28;20716;-58
2021/08/24 10:33:30;;;;;;;2.40;1.35;;;20.40;76.80;;;;;;10130384;28;20612;-59
2021/08/24 10:38:38;;;;;;;2.35;2.00;;;20.60;75.20;;;;;;10130165;28;20032;-59
2021/08/24 10:43:29;;;;;;;3.08;1.63;;;20.70;74.00;;;;;;10126730;28;20132;-59
2021/08/24 10:48:21;;;;;;;3.30;1.90;;;20.70;75.30;;;;;;10131041;28;20096;-59
2021/08/24 10:53:31;;;;;;;1.92;1.38;;;20.90;75.00;;;;;;10124218;28;20050;-59
2021/08/24 10:58:26;;;;;;;2.40;1.40;;;20.60;74.40;;;;;;10126834;28;20427;-59
2021/08/24 11:03:54;;;;;;;2.47;1.77;;;20.70;74.00;;;;;;10128440;28;20335;-57
2021/08/24 11:08:51;;;;;;;1.98;1.40;;;20.40;72.90;;;;;;10134081;28;20078;-59
2021/08/24 11:13:47;;;;;;;3.15;1.75;;;20.30;74.00;;;;;;10131388;28;20390;-59
2021/08/24 11:18:55;;;;;;;5.05;1.85;;;20.40;73.90;;;;;;10127456;28;20086;-55
2021/08/24 11:24:09;;;;;;;2.08;1.17;;;20.50;72.60;;;;;;10128517;28;20375;-56
2021/08/24 11:29:02;;;;;;;2.67;1.33;;;20.60;73.00;;;;;;10131757;28;20020;-58
2021/08/24 11:34:01;;;;;;;2.58;1.90;;;20.70;72.80;;;;;;10132290;28;20044;-56
2021/08/24 11:39:14;;;;;;;2.70;1.17;;;21.00;72.70;;;;;;10127281;28;20059;-59
2021/08/24 11:44:14;;;;;;;1.48;1.20;;;21.10;70.90;;;;;;10128346;28;20102;-60
2021/08/24 11:49:20;;;;;;;2.83;1.40;;;21.30;71.70;;;;;;10132820;28;20090;-61
2021/08/24 11:54:32;;;;;;;1.23;1.10;;;21.20;72.20;;;;;;10131613;28;20407;-64
2021/08/24 11:59:32;;;;;;;2.53;1.35;;;21.50;70.90;;;;;;10129478;28;20666;-59
2021/08/24 12:04:26;;;;;;;3.35;1.58;;;21.40;71.30;;;;;;10126918;28;20037;-57
2021/08/24 12:09:47;;;;;;;2.10;1.35;;;21.40;71.50;;;;;;10129534;28;20050;-59
2021/08/24 12:14:54;;;;;;;2.47;1.42;;;21.40;70.40;;;;;;10127720;28;20044;-58
2021/08/24 12:19:56;;;;;;;3.58;1.60;;;21.50;70.80;;;;;;10129762;28;20075;-57
2021/08/24 12:25:13;;;;;;;2.45;1.40;;;21.60;71.00;;;;;;10130032;28;20040;-57
2021/08/24 12:30:19;;;;;;;2.88;1.80;;;22.20;71.10;;;;;;10134954;28;20461;-58
2021/08/24 12:35:41;;;;;;;2.90;1.10;;;22.70;70.60;;;;;;10131180;28;20068;-54
2021/08/24 12:40:51;;;;;;;3.40;1.80;;;23.30;68.60;;;;;;10133669;28;20422;-56
2021/08/24 12:45:42;;;;;;;2.03;1.35;;;23.40;69.30;;;;;;10130722;28;20139;-53
2021/08/24 12:50:32;;;;;;;3.40;2.25;;;23.00;70.00;;;;;;10144141;28;20119;-58
2021/08/24 12:55:30;;;;;;;1.90;1.50;;;23.30;70.20;;;;;;10129620;28;20028;-57
2021/08/24 13:00:36;;;;;;;3.53;1.58;;;23.80;68.50;;;;;;10131550;28;20120;-58
2021/08/24 13:05:30;;;;;;;2.03;1.63;;;24.20;68.90;;;;;;10133796;28;20036;-59
2021/08/24 13:10:26;;;;;;;4.95;1.50;;;24.60;68.50;;;;;;10136473;28;20040;-59
2021/08/24 13:15:26;;;;;;;1.85;1.23;;;25.00;66.40;;;;;;10132495;28;20017;-59
2021/08/24 13:20:28;;;;;;;1.65;1.10;;;25.20;64.30;;;;;;10127585;28;20040;-59
2021/08/24 13:25:29;;;;;;;3.08;1.80;;;26.20;62.20;;;;;;10126599;28;20625;-58
2021/08/24 13:30:53;;;;;;;3.47;2.10;;;26.50;60.80;;;;;;10131439;28;20056;-57
2021/08/24 13:36:07;;;;;;;2.55;1.75;;;27.80;57.40;;;;;;10125011;28;20520;-57
2021/08/24 13:41:07;;;;;;;3.30;1.52;;;28.30;58.00;;;;;;10123994;28;20036;-57
2021/08/24 13:45:58;;;;;;;2.67;1.52;;;29.00;54.40;;;;;;10129734;28;20135;-57
2021/08/24 13:50:59;;;;;;;1.85;1.63;;;29.20;55.40;;;;;;10131558;28;20028;-56
2021/08/24 13:55:59;;;;;;;3.33;1.88;;;29.20;52.20;;;;;;10126503;28;20020;-55
2021/08/24 14:01:19;;;;;;;3.00;1.50;;;29.50;51.70;;;;;;10128107;28;20256;-57
2021/08/24 14:06:11;;;;;;;2.70;1.30;;;29.80;50.90;;;;;;10128319;28;20131;-54
2021/08/24 14:11:03;;;;;;;;;;;29.70;51.80;;;;;;10128789;28;20028;-55
2021/08/24 14:15:56;;;;;;;3.67;1.50;;;30.10;48.40;;;;;;10131510;28;20030;-56
2021/08/24 14:21:08;;;;;;;1.88;1.50;;;29.90;50.80;;;;;;10128062;28;20032;-56
2021/08/24 14:26:02;;;;;;;3.40;1.70;;;29.80;48.10;;;;;;10127783;28;20048;-55
2021/08/24 14:30:55;;;;;;;1.92;1.35;;;29.70;50.60;;;;;;10130920;28;20044;-55
2021/08/24 14:36:27;;;;;;;5.72;1.77;;;30.10;49.70;;;;;;10128479;28;20147;-57
2021/08/24 14:41:24;;;;;;;1.70;1.50;;;30.00;48.60;;;;;;10128701;28;20037;-57
2021/08/24 14:46:25;;;;;;;3.42;1.30;;;29.90;49.60;;;;;;10128888;28;20488;-57
2021/08/24 14:51:16;;;;;;;4.10;1.70;;;29.80;47.20;;;;;;10128167;28;20112;-57
2021/08/24 14:56:27;;;;;;;2.92;1.40;;;29.20;49.70;;;;;;10129024;28;20030;-60
2021/08/24 15:01:18;;;;;;;3.37;1.67;;;28.80;47.50;;;;;;10125931;28;20230;-58
2021/08/24 15:06:09;;;;;;;2.67;1.27;;;29.00;49.00;;;;;;10125911;28;20573;-53
2021/08/24 15:11:14;;;;;;;3.08;1.70;;;29.00;49.10;;;;;;10125812;28;20527;-59
2021/08/24 15:16:38;;;;;;;1.52;1.33;;;30.00;47.20;;;;;;10126202;28;20076;-58
2021/08/24 15:21:44;;;;;;;4.93;2.08;;;30.10;45.80;;;;;;10120388;28;20040;-59
2021/08/24 15:26:46;;;;;;;1.75;1.48;;;30.30;46.70;;;;;;10122334;28;20029;-58
2021/08/24 15:31:37;;;;;;;2.78;1.75;;;30.60;45.70;;;;;;10125249;28;20414;-59
2021/08/24 15:36:29;;;;;;;2.53;1.33;;;30.00;45.60;;;;;;10124756;28;20032;-57
2021/08/24 15:41:27;;;;;;;2.07;1.70;;;29.90;46.40;;;;;;10125652;28;20017;-58
2021/08/24 15:46:20;;;;;;;1.65;1.30;;;30.00;46.00;;;;;;10128232;28;20275;-59
2021/08/24 15:51:11;;;;;;;1.70;1.60;;;30.90;44.90;;;;;;10121477;28;20211;-59
2021/08/24 15:56:02;;;;;;;3.70;1.77;;;31.30;44.10;;;;;;10126998;28;20040;-61
2021/08/24 16:00:53;;;;;;;3.22;1.70;;;30.50;44.30;;;;;;10125548;28;20546;-59
2021/08/24 16:05:45;;;;;;;2.80;1.88;;;30.00;45.00;;;;;;10122877;28;20040;-57
2021/08/24 16:10:41;;;;;;;1.90;1.67;;;30.60;44.30;;;;;;10126988;28;20130;-57
2021/08/24 16:15:33;;;;;;;2.25;1.80;;;31.60;43.00;;;;;;10126426;28;20427;-58
2021/08/24 16:20:23;;;;;;;3.17;1.88;;;31.90;41.90;;;;;;10125706;28;20037;-58
2021/08/24 16:25:22;;;;;;;3.20;2.10;;;31.80;42.10;;;;;;10129062;28;20043;-58
2021/08/24 16:30:18;;;;;;;4.30;3.17;;;31.70;41.70;;;;;;10125846;28;20067;-59
2021/08/24 16:35:22;;;;;;;2.78;1.95;;;32.60;40.80;;;;;;10126286;28;20496;-58
2021/08/24 16:40:13;;;;;;;1.88;1.52;;;33.30;40.00;;;;;;10129738;28;20504;-62
2021/08/24 16:45:04;;;;;;;2.97;2.10;;;31.90;41.30;;;;;;10126830;28;20028;-59
2021/08/24 16:49:55;;;;;;;2.58;1.83;;;31.80;41.50;;;;;;10121497;28;20462;-55
2021/08/24 16:54:45;;;;;;;2.30;1.70;;;32.30;40.90;;;;;;10135099;28;20035;-59
2021/08/24 16:59:37;;;;;;;1.80;1.50;;;31.50;41.70;;;;;;10131958;28;20021;-57
2021/08/24 17:04:28;;;;;;;2.05;1.88;;;31.50;41.70;;;;;;10132139;28;20040;-60
2021/08/24 17:09:18;;;;;;;2.13;1.77;;;31.20;42.00;;;;;;10130112;28;20032;-58
2021/08/24 17:14:09;;;;;;;3.90;2.22;;;30.80;42.60;;;;;;10132657;28;20080;-58
2021/08/24 17:19:00;;;;;;;4.38;2.35;;;30.30;43.20;;;;;;10130436;28;20024;-59
2021/08/24 17:23:51;;;;;;;3.25;1.90;;;29.80;43.70;;;;;;10134151;28;20040;-59
2021/08/24 17:28:46;;;;;;;4.05;1.98;;;26.60;48.30;;;;;;10129528;28;20036;-58
2021/08/24 17:33:37;;;;;;;3.38;2.38;;;24.80;51.70;;;;;;10131770;28;20577;-61
2021/08/24 17:38:28;;;;;;;3.72;2.10;;;23.90;53.40;;;;;;10130364;28;20035;-58
2021/08/24 17:43:19;;;;;;;3.63;1.88;;;23.40;54.60;;;;;;10129614;28;20044;-57
2021/08/24 17:53:03;;;;;;;1.98;1.67;;;22.70;56.90;;;;;;10130576;28;20040;-56
2021/08/24 17:57:54;;;;;;;4.03;2.47;;;22.40;58.10;;;;;;10132965;28;20020;-57
2021/08/24 18:02:45;;;;;;;2.25;1.98;;;22.20;59.00;;;;;;10129547;28;20490;-57
2021/08/24 18:07:36;;;;;;;6.40;2.70;;;22.00;60.00;;;;;;10130407;28;20020;-58
2021/08/24 18:12:27;;;;;;;4.30;2.22;;;21.80;61.00;;;;;;10126514;28;20039;-58
2021/08/24 18:17:17;;;;;;;3.03;1.98;;;21.80;61.10;;;;;;10133066;28;20017;-57
2021/08/24 18:22:13;;;;;;;3.92;2.55;;;21.70;61.60;;;;;;10130906;28;20111;-57
2021/08/24 18:27:04;;;;;;;3.42;2.15;;;21.60;61.90;;;;;;10132854;28;20133;-59
2021/08/24 18:31:56;;;;;;;4.47;2.70;;;21.50;62.70;;;;;;10131130;28;20123;-58
2021/08/24 18:36:46;;;;;;;4.63;2.78;;;21.50;63.10;;;;;;10120614;28;20505;-57
2021/08/24 18:41:41;;;;;;;3.97;2.88;;;21.20;64.50;;;;;;10126996;28;20141;-59
2021/08/24 18:46:33;;;;;;;4.78;2.10;;;21.10;65.40;;;;;;10127064;28;20040;-56
2021/08/24 18:51:27;;;;;;;5.68;2.78;;;21.00;66.10;;;;;;10128705;28;20089;-56
2021/08/24 18:56:21;;;;;;;3.88;2.55;;;21.00;66.30;;;;;;10131145;28;20054;-54
2021/08/24 19:01:11;;;;;;;4.10;2.80;;;21.10;66.20;;;;;;10130344;28;20599;-57
2021/08/24 19:06:02;;;;;;;3.10;2.60;;;21.10;66.00;;;;;;10131354;28;20036;-51
2021/08/24 19:10:53;;;;;;;4.30;2.90;;;21.10;66.40;;;;;;10126537;28;20021;-52
2021/08/24 19:15:46;;;;;;;4.20;2.72;;;21.00;66.90;;;;;;10122848;28;20098;-54
2021/08/24 19:20:38;;;;;;;5.82;3.28;;;20.90;67.40;;;;;;10129152;28;20044;-57
2021/08/24 19:25:30;;;;;;;5.07;2.80;;;20.80;68.30;;;;;;10131861;28;20045;-51
2021/08/24 19:30:21;;;;;;;4.90;2.75;;;20.80;68.50;;;;;;10125898;28;20576;-56
2021/08/24 19:35:12;;;;;;;5.07;2.70;;;20.70;68.90;;;;;;10132244;28;20107;-56
2021/08/24 19:40:07;;;;;;;5.18;3.50;;;20.80;68.80;;;;;;10129335;28;20103;-55
2021/08/24 19:44:57;;;;;;;5.15;3.40;;;20.80;68.80;;;;;;10128341;28;20056;-56
2021/08/24 19:49:48;;;;;;;6.53;3.75;;;20.60;69.70;;;;;;10127859;28;20039;-54
2021/08/24 19:54:39;;;;;;;4.18;2.50;;;20.40;70.00;;;;;;10125987;28;20379;-56
2021/08/24 19:59:30;;;;;;;4.38;3.13;;;20.30;70.50;;;;;;10125507;28;20036;-55
2021/08/24 20:04:21;;;;;;;4.72;2.90;;;20.30;70.80;;;;;;10127241;28;20084;-58
2021/08/24 20:09:11;;;;;;;5.03;4.18;;;20.30;71.00;;;;;;10126985;28;20043;-58
2021/08/24 20:14:04;;;;;;;5.40;3.70;;;20.50;70.70;;;;;;10128555;28;20052;-58
2021/08/24 20:18:55;;;;;;;8.50;3.22;;;20.30;71.80;;;;;;10127138;28;20028;-58
2021/08/24 20:23:46;;;;;;;4.95;2.95;;;20.10;72.20;;;;;;10128065;28;20712;-57
2021/08/24 20:28:37;;;;;;;3.42;2.60;;;20.00;72.60;;;;;;10133202;28;20032;-58
2021/08/24 20:33:28;;;;;;;5.05;3.10;;;20.00;72.70;;;;;;10139832;28;20133;-58
2021/08/24 20:38:19;;;;;;;3.38;2.67;;;19.70;73.50;;;;;;10138944;28;20493;-58
2021/08/24 20:43:11;;;;;;;6.25;3.17;;;19.70;73.50;;;;;;10134430;28;20037;-59
2021/08/24 20:48:02;;;;;;;6.22;3.25;;;19.70;74.30;;;;;;10134294;28;20039;-58
2021/08/24 20:52:53;;;;;;;4.40;3.72;;;19.70;74.00;;;;;;10134311;28;20155;-59
2021/08/24 20:57:44;;;;;;;4.57;3.42;;;19.60;74.40;;;;;;10138855;28;20120;-61
2021/08/24 21:02:34;;;;;;;7.82;3.72;;;19.50;74.80;;;;;;10135698;28;20040;-58
2021/08/24 21:07:25;;;;;;;8.65;3.28;;;19.40;75.00;;;;;;10129880;28;20037;-57
2021/08/24 21:12:16;;;;;;;7.30;3.08;;;19.60;74.50;;;;;;10132574;28;20107;-55
2021/08/24 21:17:07;;;;;;;6.35;3.33;;;19.70;74.30;;;;;;10136098;28;20490;-56
2021/08/24 21:21:57;;;;;;;4.93;3.03;;;19.70;74.80;;;;;;10141357;28;20129;-54
2021/08/24 21:26:48;;;;;;;5.65;3.38;;;19.60;75.20;;;;;;10135034;28;20044;-53
2021/08/24 21:31:41;;;;;;;9.73;3.40;;;19.50;75.30;;;;;;10134454;28;20052;-58
2021/08/24 21:36:34;;;;;;;6.63;3.38;;;19.50;75.50;;;;;;10132608;28;20024;-57
2021/08/24 21:41:27;;;;;;;5.70;3.88;;;19.40;76.20;;;;;;10129724;28;20510;-57
2021/08/24 21:46:18;;;;;;;6.00;3.15;;;19.30;76.80;;;;;;10137382;28;20099;-56
2021/08/24 21:51:15;;;;;;;6.82;4.50;;;19.30;76.70;;;;;;10130328;28;20110;-58
2021/08/24 21:56:10;;;;;;;5.40;3.60;;;19.10;77.10;;;;;;10129180;28;20012;-59
2021/08/24 22:01:01;;;;;;;5.20;3.55;;;19.00;77.30;;;;;;10131174;28;20494;-58
2021/08/24 22:05:52;;;;;;;3.88;2.85;;;19.10;77.00;;;;;;10131144;28;20079;-58
2021/08/24 22:10:43;;;;;;;6.28;4.10;;;19.10;76.80;;;;;;10135172;28;20031;-58
2021/08/24 22:15:34;;;;;;;7.35;3.63;;;19.10;77.00;;;;;;10133334;28;20024;-58
2021/08/24 22:20:30;;;;;;;6.00;3.35;;;19.10;76.80;;;;;;10124006;28;20116;-58
2021/08/24 22:25:22;;;;;;;5.18;3.53;;;19.10;77.00;;;;;;10131538;28;20098;-58
2021/08/24 22:30:14;;;;;;;5.68;3.35;;;18.90;77.20;;;;;;10127394;28;20032;-58
2021/08/24 22:35:05;;;;;;;6.28;3.47;;;18.90;77.30;;;;;;10130220;28;20021;-59
2021/08/24 22:39:56;;;;;;;5.10;3.80;;;19.00;77.40;;;;;;10129432;28;20429;-58
2021/08/24 22:44:46;;;;;;;5.18;3.00;;;18.90;77.60;;;;;;10125952;28;20043;-58
2021/08/24 22:49:37;;;;;;;4.70;3.90;;;18.90;77.40;;;;;;10125637;28;20088;-59
2021/08/24 22:54:28;;;;;;;7.05;4.10;;;18.70;77.90;;;;;;10126609;28;20575;-59
2021/08/24 22:59:21;;;;;;;5.88;4.13;;;18.70;78.20;;;;;;10122737;28;20625;-58
2021/08/24 23:04:11;;;;;;;4.70;3.70;;;18.70;77.90;;;;;;10129368;28;20094;-58
2021/08/24 23:09:02;;;;;;;5.78;3.55;;;18.70;78.00;;;;;;10128198;28;20061;-57
2021/08/24 23:13:53;;;;;;;5.18;3.10;;;18.60;78.00;;;;;;10132892;28;20028;-58
2021/08/24 23:18:43;;;;;;;5.15;3.42;;;18.60;78.00;;;;;;10129990;28;20556;-57
2021/08/24 23:23:34;;;;;;;4.28;3.50;;;18.60;78.10;;;;;;10130393;28;20674;-57
2021/08/24 23:28:25;;;;;;;7.93;3.65;;;18.60;78.10;;;;;;10127028;28;20021;-58
2021/08/24 23:33:15;;;;;;;5.55;3.97;;;18.40;78.70;;;;;;10130424;28;20044;-58
2021/08/24 23:38:06;;;;;;;4.95;3.95;;;18.20;79.10;;;;;;10128238;28;20050;-59
2021/08/24 23:42:57;;;;;;;5.55;3.85;;;18.30;79.20;;;;;;10127172;28;20040;-58
2021/08/24 23:47:48;;;;;;;6.03;3.72;;;18.20;79.20;;;;;;10128116;28;20391;-58
2021/08/24 23:52:39;;;;;;;6.40;4.38;;;18.10;79.80;;;;;;10127598;28;20064;-58
2021/08/24 23:57:29;;;;;;;6.50;3.78;;;18.10;79.90;;;;;;10119986;28;20540;-60
